Time,TemperatureF,DewpointF,PressureIn,WindDirection,WindDirectionDegrees,WindSpeedMPH,WindSpeedGustMPH,Humidity,HourlyPrecipIn,Conditions,Clouds,dailyrainin,SoftwareType,DateUTC
2014-01-17 00:22:00,24.0,11.0,29.78,West,270,13.0,19.0,58,-99.99,,,-99.99,,2014-01-17 05:22:00,
2014-01-17 00:53:00,24.0,12.0,29.78,SW,229,14.0,17.0,59,-99.99,,,-99.99,,2014-01-17 05:53:00,
2014-01-17 01:22:00,24.0,12.0,29.77,SW,236,13.0,19.0,60,-99.99,,,-99.99,,2014-01-17 06:22:00,
2014-01-17 01:52:00,24.0,13.0,29.77,WSW,252,14.0,16.0,61,-99.99,,,-99.99,,2014-01-17 06:52:00,
2014-01-17 02:22:00,24.0,13.0,29.77,WSW,256,14.0,19.0,62,-99.99,,,-99.99,,2014-01-17 07:22:00,
2014-01-17 02:52:00,24.0,14.0,29.77,West,267,15.0,16.0,64,-99.99,,,-99.99,,2014-01-17 07:52:00,
2014-01-17 03:22:00,24.0,14.0,29.76,West,263,10.0,13.0,66,-99.99,,,-99.99,,2014-01-17 08:22:00,
2014-01-17 03:52:00,23.0,14.0,29.76,West,267,12.0,12.0,68,-99.99,,,-99.99,,2014-01-17 08:52:00,
2014-01-17 04:22:00,23.0,15.0,29.76,West,267,10.0,16.0,71,-99.99,,,-99.99,,2014-01-17 09:22:00,
2014-01-17 04:44:00,24.0,17.0,29.76,West,274,11.0,18.0,73,-99.99,,,-99.99,,2014-01-17 09:44:00,
2014-01-17 04:53:00,24.0,17.0,29.76,West,265,13.0,16.0,74,-99.99,,,-99.99,,2014-01-17 09:53:00,
2014-01-17 05:24:00,24.0,17.0,29.76,West,270,9.0,15.0,75,-99.99,,,-99.99,,2014-01-17 10:24:00,
2014-01-17 05:52:00,24.0,18.0,29.78,West,267,13.0,16.0,77,-99.99,,,-99.99,,2014-01-17 10:52:00,
2014-01-17 06:22:00,24.0,18.0,29.76,West,272,9.0,12.0,78,-99.99,,,-99.99,,2014-01-17 11:22:00,
2014-01-17 06:53:00,24.0,18.0,29.76,West,270,11.0,12.0,77,-99.99,,,-99.99,,2014-01-17 11:53:00,
2014-01-17 07:22:00,25.0,18.0,29.77,West,270,7.0,11.0,75,-99.99,,,-99.99,,2014-01-17 12:22:00,
2014-01-17 07:52:00,25.0,18.0,29.78,WSW,238,9.0,14.0,75,-99.99,,,-99.99,,2014-01-17 12:52:00,
2014-01-17 08:22:00,26.0,19.0,29.78,WSW,256,6.0,13.0,74,-99.99,,,-99.99,,2014-01-17 13:22:00,
2014-01-17 08:52:00,26.0,17.0,29.79,SW,225,11.0,15.0,69,-99.99,,,-99.99,,2014-01-17 13:52:00,
2014-01-17 09:22:00,27.0,18.0,29.80,SW,220,15.0,15.0,68,-99.99,,,-99.99,,2014-01-17 14:22:00,
2014-01-17 09:42:00,28.0,19.0,29.81,SW,220,6.0,13.0,68,-99.99,,,-99.99,,2014-01-17 14:42:00,
2014-01-17 09:52:00,29.0,19.0,29.81,SW,225,5.0,12.0,67,-99.99,,,-99.99,,2014-01-17 14:52:00,
2014-01-17 10:22:00,30.0,20.0,29.81,SW,229,5.0,11.0,65,-99.99,,,-99.99,,2014-01-17 15:22:00,
2014-01-17 10:53:00,31.0,20.0,29.81,SW,220,8.0,14.0,62,-99.99,,,-99.99,,2014-01-17 15:53:00,
2014-01-17 11:03:00,31.0,20.0,29.81,SW,220,8.0,14.0,62,-99.99,,,-99.99,,2014-01-17 16:03:00,
2014-01-17 11:23:00,32.0,19.0,29.80,SW,229,13.0,19.0,59,-99.99,,,-99.99,,2014-01-17 16:23:00,
2014-01-17 11:53:00,33.0,20.0,29.79,WSW,256,6.0,21.0,59,-99.99,,,-99.99,,2014-01-17 16:53:00,
2014-01-17 12:02:00,33.0,20.0,29.79,WSW,256,6.0,21.0,59,-99.99,,,-99.99,,2014-01-17 17:02:00,
2014-01-17 12:22:00,33.0,20.0,29.78,WSW,247,12.0,18.0,58,-99.99,,,-99.99,,2014-01-17 17:22:00,
2014-01-17 12:53:00,33.0,19.0,29.77,West,261,8.0,19.0,56,-99.99,,,-99.99,,2014-01-17 17:53:00,
2014-01-17 13:22:00,34.0,19.0,29.75,West,265,9.0,17.0,53,-99.99,,,-99.99,,2014-01-17 18:22:00,
2014-01-17 13:42:00,34.0,19.0,29.74,SW,234,13.0,17.0,54,-99.99,,,-99.99,,2014-01-17 18:42:00,
2014-01-17 13:52:00,33.0,18.0,29.74,West,270,9.0,22.0,54,-99.99,,,-99.99,,2014-01-17 18:52:00,
2014-01-17 14:22:00,34.0,19.0,29.74,West,261,14.0,14.0,54,-99.99,,,-99.99,,2014-01-17 19:22:00,
2014-01-17 14:42:00,37.0,19.0,29.73,West,270,7.0,11.0,48,-99.99,,,-99.99,,2014-01-17 19:42:00,
2014-01-17 14:52:00,38.0,19.0,29.73,West,270,8.0,17.0,45,-99.99,,,-99.99,,2014-01-17 19:52:00,
2014-01-17 15:22:00,36.0,18.0,29.73,NNW,339,2.0,13.0,47,-99.99,,,-99.99,,2014-01-17 20:22:00,
2014-01-17 15:52:00,34.0,19.0,29.73,South,177,7.0,7.0,54,-99.99,,,-99.99,,2014-01-17 20:52:00,
2014-01-17 16:22:00,34.0,21.0,29.73,South,180,4.0,10.0,58,-99.99,,,-99.99,,2014-01-17 21:22:00,
2014-01-17 16:53:00,31.0,20.0,29.73,SE,135,5.0,10.0,64,-99.99,,,-99.99,,2014-01-17 21:53:00,
2014-01-17 17:23:00,30.0,20.0,29.73,SE,135,7.0,8.0,67,-99.99,,,-99.99,,2014-01-17 22:23:00,
2014-01-17 17:53:00,29.0,21.0,29.73,SE,135,9.0,11.0,71,-99.99,,,-99.99,,2014-01-17 22:53:00,
2014-01-17 18:22:00,29.0,20.0,29.73,SSE,153,17.0,17.0,69,-99.99,,,-99.99,,2014-01-17 23:22:00,
2014-01-17 18:42:00,29.0,20.0,29.74,South,173,11.0,16.0,69,-99.99,,,-99.99,,2014-01-17 23:42:00,
2014-01-17 18:53:00,29.0,20.0,29.74,South,171,10.0,18.0,68,-99.99,,,-99.99,,2014-01-17 23:53:00,
2014-01-17 19:22:00,29.0,20.0,29.74,South,184,11.0,15.0,68,-99.99,,,-99.99,,2014-01-18 00:22:00,
2014-01-17 19:52:00,29.0,19.0,29.74,SSE,168,9.0,13.0,66,-99.99,,,-99.99,,2014-01-18 00:52:00,
2014-01-17 20:22:00,29.0,19.0,29.74,SW,220,7.0,9.0,66,-99.99,,,-99.99,,2014-01-18 01:22:00,
2014-01-17 20:42:00,29.0,19.0,29.75,SSW,204,6.0,10.0,66,-99.99,,,-99.99,,2014-01-18 01:42:00,
2014-01-17 20:52:00,29.0,19.0,29.74,West,261,6.0,11.0,67,-99.99,,,-99.99,,2014-01-18 01:52:00,
2014-01-17 21:22:00,28.0,20.0,29.73,West,274,6.0,13.0,70,-99.99,,,-99.99,,2014-01-18 02:22:00,
2014-01-17 21:32:00,28.0,20.0,29.73,West,274,6.0,13.0,70,-99.99,,,-99.99,,2014-01-18 02:32:00,
2014-01-17 21:52:00,26.0,23.0,29.73,West,272,11.0,11.0,88,-99.99,,,-99.99,,2014-01-18 02:52:00,
2014-01-17 22:22:00,26.0,26.0,29.72,NW,308,10.0,11.0,100,-99.99,,,-99.99,,2014-01-18 03:22:00,
2014-01-17 22:53:00,24.0,24.0,29.72,WNW,301,34.0,34.0,100,-99.99,,,-99.99,,2014-01-18 03:53:00,
2014-01-17 23:23:00,24.0,24.0,29.71,NW,312,22.0,22.0,100,-99.99,,,-99.99,,2014-01-18 04:23:00,
2014-01-17 23:42:00,23.0,23.0,29.72,NW,306,12.0,16.0,100,-99.99,,,-99.99,,2014-01-18 04:42:00,
2014-01-17 23:53:00,23.0,23.0,29.71,WNW,297,10.0,10.0,100,-99.99,,,-99.99,,2014-01-18 04:53:00,